sensor_id;sensor_type;location;lat;lon;timestamp;pressure;altitude;pressure_sealevel;temperature;humidity
21433;BME280;18592;49.708;10.900;2023-05-10T00:02:13;97877.81;;;20.97;40.63
21433;BME280;18592;49.708;10.900;2023-05-10T00:04:17;97878.94;;;20.96;40.49
21433;BME280;18592;49.708;10.900;2023-05-10T00:06:19;97875.34;;;20.95;40.73
21433;BME280;18592;49.708;10.900;2023-05-10T00:08:23;97871.78;;;20.95;40.99
21433;BME280;18592;49.708;10.900;2023-05-10T00:10:25;97865.44;;;20.94;41.03
21433;BME280;18592;49.708;10.900;2023-05-10T00:12:26;97866.09;;;20.91;40.59
21433;BME280;18592;49.708;10.900;2023-05-10T00:14:28;97868.03;;;20.90;40.78
21433;BME280;18592;49.708;10.900;2023-05-10T00:16:30;97869.22;;;20.89;41.07
21433;BME280;18592;49.708;10.900;2023-05-10T00:18:31;97869.22;;;20.89;41.26
21433;BME280;18592;49.708;10.900;2023-05-10T00:20:33;97871.47;;;20.87;41.31
21433;BME280;18592;49.708;10.900;2023-05-10T00:22:34;97865.16;;;20.87;41.31
21433;BME280;18592;49.708;10.900;2023-05-10T00:24:39;97865.47;;;20.85;41.44
21433;BME280;18592;49.708;10.900;2023-05-10T00:26:41;97861.56;;;20.86;41.86
21433;BME280;18592;49.708;10.900;2023-05-10T00:28:43;97860.28;;;20.84;41.55
21433;BME280;18592;49.708;10.900;2023-05-10T00:30:45;97861.75;;;20.81;41.89
21433;BME280;18592;49.708;10.900;2023-05-10T00:32:46;97858.16;;;20.81;42.03
21433;BME280;18592;49.708;10.900;2023-05-10T00:34:49;97855.41;;;20.81;42.26
21433;BME280;18592;49.708;10.900;2023-05-10T00:36:51;97851.81;;;20.80;42.19
21433;BME280;18592;49.708;10.900;2023-05-10T00:38:55;97855.75;;;20.79;42.94
21433;BME280;18592;49.708;10.900;2023-05-10T00:41:00;97849.38;;;20.79;43.30
21433;BME280;18592;49.708;10.900;2023-05-10T00:43:05;97848.56;;;20.78;43.31
21433;BME280;18592;49.708;10.900;2023-05-10T00:45:09;97849.69;;;20.77;43.70
21433;BME280;18592;49.708;10.900;2023-05-10T00:47:11;97846.94;;;20.77;43.42
21433;BME280;18592;49.708;10.900;2023-05-10T00:49:13;97854.09;;;20.78;43.69
21433;BME280;18592;49.708;10.900;2023-05-10T00:51:15;97851.00;;;20.80;43.64
21433;BME280;18592;49.708;10.900;2023-05-10T00:53:19;97849.69;;;20.77;43.85
21433;BME280;18592;49.708;10.900;2023-05-10T00:55:21;97854.09;;;20.78;43.85
21433;BME280;18592;49.708;10.900;2023-05-10T00:57:28;97849.69;;;20.77;44.96
21433;BME280;18592;49.708;10.900;2023-05-10T00:59:30;97849.69;;;20.77;44.11
21433;BME280;18592;49.708;10.900;2023-05-10T01:01:32;97851.69;;;20.77;44.19
21433;BME280;18592;49.708;10.900;2023-05-10T01:03:34;97847.28;;;20.76;44.19
21433;BME280;18592;49.708;10.900;2023-05-10T01:05:37;97850.41;;;20.74;44.66
21433;BME280;18592;49.708;10.900;2023-05-10T01:07:39;97852.00;;;20.75;44.84
21433;BME280;18592;49.708;10.900;2023-05-10T01:09:41;97860.31;;;20.75;45.34
21433;BME280;18592;49.708;10.900;2023-05-10T01:11:42;97852.81;;;20.76;45.11
21433;BME280;18592;49.708;10.900;2023-05-10T01:13:52;97849.91;;;20.72;45.24
21433;BME280;18592;49.708;10.900;2023-05-10T01:15:57;97858.19;;;20.72;45.65
21433;BME280;18592;49.708;10.900;2023-05-10T01:18:02;97859.38;;;20.71;45.94
21433;BME280;18592;49.708;10.900;2023-05-10T01:20:05;97858.19;;;20.72;45.38
21433;BME280;18592;49.708;10.900;2023-05-10T01:30:15;97857.09;;;20.65;47.12
21433;BME280;18592;49.708;10.900;2023-05-10T01:32:56;97857.44;;;20.63;46.62
21433;BME280;18592;49.708;10.900;2023-05-10T01:35:10;97849.13;;;20.63;46.91
21433;BME280;18592;49.708;10.900;2023-05-10T01:37:22;97853.84;;;20.63;47.00
21433;BME280;18592;49.708;10.900;2023-05-10T01:39:50;97853.84;;;20.63;47.45
21433;BME280;18592;49.708;10.900;2023-05-10T01:42:04;97855.00;;;20.62;47.18
21433;BME280;18592;49.708;10.900;2023-05-10T01:44:26;97851.44;;;20.61;47.29
21433;BME280;18592;49.708;10.900;2023-05-10T01:46:37;97852.56;;;20.60;47.72
21433;BME280;18592;49.708;10.900;2023-05-10T01:48:51;97854.88;;;20.58;48.37
21433;BME280;18592;49.708;10.900;2023-05-10T01:50:58;97854.53;;;20.60;47.26
21433;BME280;18592;49.708;10.900;2023-05-10T01:53:06;97856.47;;;20.59;47.94
21433;BME280;18592;49.708;10.900;2023-05-10T01:55:14;97852.41;;;20.57;47.94
21433;BME280;18592;49.708;10.900;2023-05-10T01:57:19;97854.41;;;20.56;47.89
21433;BME280;18592;49.708;10.900;2023-05-10T01:59:22;97856.00;;;20.57;47.90
21433;BME280;18592;49.708;10.900;2023-05-10T02:01:32;97855.19;;;20.57;48.15
21433;BME280;18592;49.708;10.900;2023-05-10T02:03:35;97854.41;;;20.56;47.62
21433;BME280;18592;49.708;10.900;2023-05-10T02:05:43;97851.13;;;20.54;48.07
21433;BME280;18592;49.708;10.900;2023-05-10T02:07:47;97850.00;;;20.55;47.93
21433;BME280;18592;49.708;10.900;2023-05-10T02:09:51;97851.94;;;20.55;47.84
21433;BME280;18592;49.708;10.900;2023-05-10T02:11:53;97857.00;;;20.53;48.06
21433;BME280;18592;49.708;10.900;2023-05-10T02:13:56;97860.91;;;20.52;48.24
21433;BME280;18592;49.708;10.900;2023-05-10T02:16:02;97855.72;;;20.50;48.13
21433;BME280;18592;49.708;10.900;2023-05-10T02:18:14;97857.34;;;20.51;48.67
21433;BME280;18592;49.708;10.900;2023-05-10T02:20:18;97851.81;;;20.51;49.15
21433;BME280;18592;49.708;10.900;2023-05-10T02:22:28;97853.28;;;20.49;49.00
21433;BME280;18592;49.708;10.900;2023-05-10T02:24:32;97855.25;;;20.48;48.86
21433;BME280;18592;49.708;10.900;2023-05-10T02:26:36;97853.94;;;20.46;49.05
21433;BME280;18592;49.708;10.900;2023-05-10T02:28:40;97853.13;;;20.45;49.22
21433;BME280;18592;49.708;10.900;2023-05-10T02:30:42;97865.34;;;20.44;49.27
21433;BME280;18592;49.708;10.900;2023-05-10T02:32:49;97864.84;;;20.42;49.14
21433;BME280;18592;49.708;10.900;2023-05-10T02:34:52;97874.97;;;20.38;49.71
21433;BME280;18592;49.708;10.900;2023-05-10T02:36:55;97875.63;;;20.35;49.60
21433;BME280;18592;49.708;10.900;2023-05-10T02:39:01;97870.75;;;20.32;49.74
21433;BME280;18592;49.708;10.900;2023-05-10T02:41:04;97880.22;;;20.31;49.17
21433;BME280;18592;49.708;10.900;2023-05-10T02:43:09;97876.63;;;20.31;49.22
21433;BME280;18592;49.708;10.900;2023-05-10T02:45:17;97880.88;;;20.28;49.43
21433;BME280;18592;49.708;10.900;2023-05-10T02:47:20;97869.34;;;20.26;49.21
21433;BME280;18592;49.708;10.900;2023-05-10T02:49:22;97877.63;;;20.26;49.10
21433;BME280;18592;49.708;10.900;2023-05-10T02:51:25;97871.59;;;20.24;49.41
21433;BME280;18592;49.708;10.900;2023-05-10T02:53:38;97869.13;;;20.22;49.89
21433;BME280;18592;49.708;10.900;2023-05-10T02:55:41;97872.56;;;20.19;49.09
21433;BME280;18592;49.708;10.900;2023-05-10T02:57:50;97864.13;;;20.16;49.33
21433;BME280;18592;49.708;10.900;2023-05-10T02:59:53;97861.66;;;20.14;49.58
21433;BME280;18592;49.708;10.900;2023-05-10T03:01:54;97862.50;;;20.15;49.33
21433;BME280;18592;49.708;10.900;2023-05-10T03:03:56;97863.97;;;20.12;49.40
21433;BME280;18592;49.708;10.900;2023-05-10T03:05:58;97867.53;;;20.13;49.31
21433;BME280;18592;49.708;10.900;2023-05-10T03:08:04;97865.44;;;20.10;49.49
21433;BME280;18592;49.708;10.900;2023-05-10T03:10:09;97861.03;;;20.09;49.36
21433;BME280;18592;49.708;10.900;2023-05-10T03:14:51;97864.78;;;20.04;50.17
21433;BME280;18592;49.708;10.900;2023-05-10T03:17:06;97863.97;;;20.04;49.87
21433;BME280;18592;49.708;10.900;2023-05-10T03:19:26;97871.47;;;20.03;50.75
21433;BME280;18592;49.708;10.900;2023-05-10T03:21:29;97867.41;;;20.01;49.98
21433;BME280;18592;49.708;10.900;2023-05-10T03:23:38;97871.66;;;19.98;50.07
21433;BME280;18592;49.708;10.900;2023-05-10T03:25:43;97870.84;;;19.98;50.11
21433;BME280;18592;49.708;10.900;2023-05-10T03:27:45;97873.59;;;19.98;50.34
21433;BME280;18592;49.708;10.900;2023-05-10T03:29:48;97876.19;;;19.94;50.27
21433;BME280;18592;49.708;10.900;2023-05-10T03:31:50;97874.25;;;19.95;50.04
21433;BME280;18592;49.708;10.900;2023-05-10T03:33:53;97880.91;;;19.94;49.96
21433;BME280;18592;49.708;10.900;2023-05-10T03:35:59;97884.03;;;19.92;50.41
21433;BME280;18592;49.708;10.900;2023-05-10T03:38:04;97886.31;;;19.90;50.41
21433;BME280;18592;49.708;10.900;2023-05-10T03:40:06;97890.53;;;19.88;50.67
21433;BME280;18592;49.708;10.900;2023-05-10T03:42:13;97892.84;;;19.86;50.81
21433;BME280;18592;49.708;10.900;2023-05-10T03:44:19;97895.59;;;19.86;50.54
21433;BME280;18592;49.708;10.900;2023-05-10T03:46:23;97899.50;;;19.85;50.34
21433;BME280;18592;49.708;10.900;2023-05-10T03:48:28;97899.00;;;19.83;50.38
21433;BME280;18592;49.708;10.900;2023-05-10T03:50:29;97898.53;;;19.81;50.70
21433;BME280;18592;49.708;10.900;2023-05-10T03:52:31;97898.03;;;19.79;50.58
21433;BME280;18592;49.708;10.900;2023-05-10T03:54:35;97899.19;;;19.78;50.51
21433;BME280;18592;49.708;10.900;2023-05-10T03:56:36;97903.88;;;19.77;50.70
21433;BME280;18592;49.708;10.900;2023-05-10T03:58:38;97911.72;;;19.75;50.86
21433;BME280;18592;49.708;10.900;2023-05-10T04:00:40;97905.34;;;19.75;50.83
21433;BME280;18592;49.708;10.900;2023-05-10T04:02:48;97919.19;;;19.75;51.27
21433;BME280;18592;49.708;10.900;2023-05-10T04:04:53;97919.53;;;19.73;51.42
21433;BME280;18592;49.708;10.900;2023-05-10T04:06:55;97921.47;;;19.73;50.98
21433;BME280;18592;49.708;10.900;2023-05-10T04:08:59;97921.00;;;19.71;50.73
21433;BME280;18592;49.708;10.900;2023-05-10T04:11:09;97920.00;;;19.67;51.22
21433;BME280;18592;49.708;10.900;2023-05-10T04:13:11;97921.94;;;19.66;50.93
21433;BME280;18592;49.708;10.900;2023-05-10T04:15:14;97923.09;;;19.65;50.98
21433;BME280;18592;49.708;10.900;2023-05-10T04:17:16;97921.81;;;19.62;50.72
21433;BME280;18592;49.708;10.900;2023-05-10T04:19:19;97924.56;;;19.62;51.14
21433;BME280;18592;49.708;10.900;2023-05-10T04:21:20;97926.84;;;19.60;50.58
21433;BME280;18592;49.708;10.900;2023-05-10T04:23:22;97927.97;;;19.59;50.42
21433;BME280;18592;49.708;10.900;2023-05-10T04:25:24;97927.50;;;19.57;50.54
21433;BME280;18592;49.708;10.900;2023-05-10T04:27:26;97950.25;;;19.54;50.71
21433;BME280;18592;49.708;10.900;2023-05-10T04:29:28;97934.31;;;19.51;50.54
21433;BME280;18592;49.708;10.900;2023-05-10T04:31:29;97934.63;;;19.50;50.39
21433;BME280;18592;49.708;10.900;2023-05-10T04:33:33;97943.75;;;19.50;50.42
21433;BME280;18592;49.708;10.900;2023-05-10T04:35:37;97941.28;;;19.49;50.47
21433;BME280;18592;49.708;10.900;2023-05-10T04:37:45;97948.47;;;19.50;50.96
21433;BME280;18592;49.708;10.900;2023-05-10T04:39:46;97949.09;;;19.47;50.52
21433;BME280;18592;49.708;10.900;2023-05-10T04:41:48;97950.22;;;19.46;50.82
21433;BME280;18592;49.708;10.900;2023-05-10T04:43:50;97951.38;;;19.45;50.72
21433;BME280;18592;49.708;10.900;2023-05-10T04:45:51;97950.56;;;19.44;50.37
21433;BME280;18592;49.708;10.900;2023-05-10T04:47:53;97949.25;;;19.42;50.66
21433;BME280;18592;49.708;10.900;2023-05-10T04:49:54;97958.38;;;19.42;50.49
21433;BME280;18592;49.708;10.900;2023-05-10T04:51:56;97958.69;;;19.41;50.62
21433;BME280;18592;49.708;10.900;2023-05-10T04:54:00;97959.00;;;19.39;51.05
21433;BME280;18592;49.708;10.900;2023-05-10T04:56:07;97961.78;;;19.39;50.55
21433;BME280;18592;49.708;10.900;2023-05-10T04:58:09;97962.13;;;19.38;50.60
21433;BME280;18592;49.708;10.900;2023-05-10T05:00:12;97961.28;;;19.37;50.46
21433;BME280;18592;49.708;10.900;2023-05-10T05:02:14;97964.06;;;19.37;50.84
21433;BME280;18592;49.708;10.900;2023-05-10T05:04:16;97970.69;;;19.36;50.95
21433;BME280;18592;49.708;10.900;2023-05-10T05:06:18;97969.06;;;19.35;50.73
21433;BME280;18592;49.708;10.900;2023-05-10T05:08:22;97972.47;;;19.32;50.55
21433;BME280;18592;49.708;10.900;2023-05-10T05:10:24;97975.53;;;19.31;50.46
21433;BME280;18592;49.708;10.900;2023-05-10T05:12:26;97970.19;;;19.34;51.05
21433;BME280;18592;49.708;10.900;2023-05-10T05:14:28;97976.72;;;19.38;50.34
21433;BME280;18592;49.708;10.900;2023-05-10T05:16:30;97976.56;;;19.43;50.36
21433;BME280;18592;49.708;10.900;2023-05-10T05:18:32;97985.03;;;19.47;50.46
21433;BME280;18592;49.708;10.900;2023-05-10T05:20:34;97990.75;;;19.50;50.32
21433;BME280;18592;49.708;10.900;2023-05-10T05:22:40;97995.94;;;19.52;50.82
21433;BME280;18592;49.708;10.900;2023-05-10T05:24:41;97993.66;;;19.54;50.38
21433;BME280;18592;49.708;10.900;2023-05-10T05:26:43;97996.91;;;19.56;50.49
21433;BME280;18592;49.708;10.900;2023-05-10T05:28:44;97994.97;;;19.56;50.26
21433;BME280;18592;49.708;10.900;2023-05-10T05:30:52;97998.22;;;19.58;50.29
21433;BME280;18592;49.708;10.900;2023-05-10T05:32:54;97997.09;;;19.59;50.34
21433;BME280;18592;49.708;10.900;2023-05-10T05:34:58;98000.69;;;19.60;50.34
21433;BME280;18592;49.708;10.900;2023-05-10T05:36:59;97999.53;;;19.61;50.11
21433;BME280;18592;49.708;10.900;2023-05-10T05:39:01;98002.00;;;19.62;50.77
21433;BME280;18592;49.708;10.900;2023-05-10T05:41:02;98003.59;;;19.63;50.66
21433;BME280;18592;49.708;10.900;2023-05-10T05:43:04;97997.75;;;19.65;50.99
21433;BME280;18592;49.708;10.900;2023-05-10T05:45:08;97991.06;;;19.66;50.98
21433;BME280;18592;49.708;10.900;2023-05-10T05:47:19;97998.25;;;19.67;50.81
21433;BME280;18592;49.708;10.900;2023-05-10T05:49:23;97997.59;;;19.70;51.52
21433;BME280;18592;49.708;10.900;2023-05-10T05:51:25;98006.38;;;19.72;50.68
21433;BME280;18592;49.708;10.900;2023-05-10T05:53:26;97997.28;;;19.72;50.82
21433;BME280;18592;49.708;10.900;2023-05-10T05:55:30;98008.03;;;19.73;50.80
21433;BME280;18592;49.708;10.900;2023-05-10T05:57:32;98009.31;;;19.76;50.88
21433;BME280;18592;49.708;10.900;2023-05-10T05:59:34;98012.88;;;19.76;50.75
21433;BME280;18592;49.708;10.900;2023-05-10T06:01:36;98017.28;;;19.77;50.94
21433;BME280;18592;49.708;10.900;2023-05-10T06:03:37;98026.91;;;19.80;50.95
21433;BME280;18592;49.708;10.900;2023-05-10T06:05:39;98022.50;;;19.79;51.00
21433;BME280;18592;49.708;10.900;2023-05-10T06:07:41;98030.16;;;19.82;50.93
21433;BME280;18592;49.708;10.900;2023-05-10T06:09:43;98031.31;;;19.81;50.68
21433;BME280;18592;49.708;10.900;2023-05-10T06:11:50;98032.28;;;19.85;50.69
21433;BME280;18592;49.708;10.900;2023-05-10T06:13:54;98034.22;;;19.84;50.67
21433;BME280;18592;49.708;10.900;2023-05-10T06:15:55;98029.16;;;19.86;50.85
21433;BME280;18592;49.708;10.900;2023-05-10T06:17:57;98028.03;;;19.87;50.82
21433;BME280;18592;49.708;10.900;2023-05-10T06:19:59;98038.75;;;19.89;50.60
21433;BME280;18592;49.708;10.900;2023-05-10T06:22:00;98039.28;;;19.91;50.92
21433;BME280;18592;49.708;10.900;2023-05-10T06:24:02;98040.88;;;19.92;50.70
21433;BME280;18592;49.708;10.900;2023-05-10T06:26:04;98054.09;;;19.95;51.08
21433;BME280;18592;49.708;10.900;2023-05-10T06:28:05;98044.66;;;19.96;50.82
21433;BME280;18592;49.708;10.900;2023-05-10T06:30:16;98049.84;;;19.97;50.76
21433;BME280;18592;49.708;10.900;2023-05-10T06:32:18;98059.28;;;19.96;50.46
21433;BME280;18592;49.708;10.900;2023-05-10T06:34:19;98054.56;;;19.97;50.62
21433;BME280;18592;49.708;10.900;2023-05-10T06:36:21;98056.69;;;20.00;50.50
21433;BME280;18592;49.708;10.900;2023-05-10T06:38:23;98054.25;;;19.98;50.17
21433;BME280;18592;49.708;10.900;2023-05-10T06:40:24;98054.75;;;20.00;50.33
21433;BME280;18592;49.708;10.900;2023-05-10T06:42:30;98055.72;;;20.04;50.10
21433;BME280;18592;49.708;10.900;2023-05-10T06:44:32;98050.66;;;20.06;50.02
21433;BME280;18592;49.708;10.900;2023-05-10T06:46:34;98054.72;;;20.09;50.16
21433;BME280;18592;49.708;10.900;2023-05-10T06:48:35;98055.25;;;20.11;50.14
21433;BME280;18592;49.708;10.900;2023-05-10T06:50:37;98059.31;;;20.13;50.39
21433;BME280;18592;49.708;10.900;2023-05-10T06:52:39;98056.56;;;20.13;50.04
21433;BME280;18592;49.708;10.900;2023-05-10T06:54:44;98058.34;;;20.18;50.13
21433;BME280;18592;49.708;10.900;2023-05-10T06:56:46;98056.69;;;20.17;50.18
21433;BME280;18592;49.708;10.900;2023-05-10T06:58:48;98066.00;;;20.21;49.85
21433;BME280;18592;49.708;10.900;2023-05-10T07:00:50;98059.94;;;20.19;49.46
21433;BME280;18592;49.708;10.900;2023-05-10T07:02:52;98072.66;;;20.20;49.65
21433;BME280;18592;49.708;10.900;2023-05-10T07:04:53;98066.00;;;20.21;48.96
21433;BME280;18592;49.708;10.900;2023-05-10T07:07:01;98062.41;;;20.20;49.19
21433;BME280;18592;49.708;10.900;2023-05-10T07:09:02;98060.97;;;20.23;49.16
21433;BME280;18592;49.708;10.900;2023-05-10T07:11:05;98068.13;;;20.24;49.09
21433;BME280;18592;49.708;10.900;2023-05-10T07:13:08;98071.41;;;20.26;48.80
21433;BME280;18592;49.708;10.900;2023-05-10T07:15:11;98064.69;;;20.27;48.74
21433;BME280;18592;49.708;10.900;2023-05-10T07:17:12;98067.94;;;20.29;48.44
21433;BME280;18592;49.708;10.900;2023-05-10T07:19:14;98066.81;;;20.30;48.64
21433;BME280;18592;49.708;10.900;2023-05-10T07:21:16;98068.13;;;20.33;48.36
21433;BME280;18592;49.708;10.900;2023-05-10T07:23:23;98073.00;;;20.36;48.29
21433;BME280;18592;49.708;10.900;2023-05-10T07:25:25;98066.00;;;20.38;48.50
21433;BME280;18592;49.708;10.900;2023-05-10T07:27:27;98072.03;;;20.40;48.54
21433;BME280;18592;49.708;10.900;2023-05-10T07:29:28;98074.47;;;20.42;48.59
21433;BME280;18592;49.708;10.900;2023-05-10T07:31:31;98080.66;;;20.47;48.21
21433;BME280;18592;49.708;10.900;2023-05-10T07:33:39;98071.69;;;20.50;48.21
21433;BME280;18592;49.708;10.900;2023-05-10T07:35:44;98071.88;;;20.54;48.09
21433;BME280;18592;49.708;10.900;2023-05-10T07:37:45;98073.16;;;20.56;47.98
21433;BME280;18592;49.708;10.900;2023-05-10T07:39:47;98076.91;;;20.60;48.25
21433;BME280;18592;49.708;10.900;2023-05-10T07:41:48;98075.44;;;20.63;48.12
21433;BME280;18592;49.708;10.900;2023-05-10T07:43:50;98081.97;;;20.67;48.13
21433;BME280;18592;49.708;10.900;2023-05-10T07:45:51;98089.59;;;20.70;47.61
21433;BME280;18592;49.708;10.900;2023-05-10T07:47:56;98090.88;;;20.72;47.76
21433;BME280;18592;49.708;10.900;2023-05-10T07:49:58;98079.50;;;20.74;47.56
21433;BME280;18592;49.708;10.900;2023-05-10T07:52:00;98087.47;;;20.75;47.85
21433;BME280;18592;49.708;10.900;2023-05-10T07:54:02;98086.00;;;20.78;47.54
21433;BME280;18592;49.708;10.900;2023-05-10T07:56:30;98085.19;;;20.77;47.51
21433;BME280;18592;49.708;10.900;2023-05-10T07:58:34;98093.19;;;20.79;47.27
21433;BME280;18592;49.708;10.900;2023-05-10T08:00:36;98084.88;;;20.79;47.12
21433;BME280;18592;49.708;10.900;2023-05-10T08:02:43;98094.31;;;20.78;47.17
21433;BME280;18592;49.708;10.900;2023-05-10T08:04:44;98099.84;;;20.78;47.11
21433;BME280;18592;49.708;10.900;2023-05-10T08:06:46;98091.53;;;20.78;47.06
21433;BME280;18592;49.708;10.900;2023-05-10T08:08:48;98092.34;;;20.78;47.20
21433;BME280;18592;49.708;10.900;2023-05-10T08:10:51;98097.06;;;20.78;46.90
21433;BME280;18592;49.708;10.900;2023-05-10T08:12:53;98107.03;;;20.79;47.07
21433;BME280;18592;49.708;10.900;2023-05-10T08:14:54;98102.63;;;20.78;46.98
21433;BME280;18592;49.708;10.900;2023-05-10T08:16:56;98104.72;;;20.81;47.05
21433;BME280;18592;49.708;10.900;2023-05-10T08:18:57;98104.72;;;20.81;47.15
21433;BME280;18592;49.708;10.900;2023-05-10T08:20:59;98107.50;;;20.81;46.79
21433;BME280;18592;49.708;10.900;2023-05-10T08:23:03;98112.72;;;20.82;46.94
21433;BME280;18592;49.708;10.900;2023-05-10T08:25:05;98112.06;;;20.85;47.03
21433;BME280;18592;49.708;10.900;2023-05-10T08:27:08;98109.75;;;20.87;46.96
21433;BME280;18592;49.708;10.900;2023-05-10T08:29:09;98110.28;;;20.89;47.18
21433;BME280;18592;49.708;10.900;2023-05-10T08:31:14;98111.56;;;20.92;46.81
21433;BME280;18592;49.708;10.900;2023-05-10T08:33:18;98115.66;;;20.95;46.84
21433;BME280;18592;49.708;10.900;2023-05-10T08:35:19;98124.91;;;20.99;46.88
21433;BME280;18592;49.708;10.900;2023-05-10T08:37:21;98117.06;;;21.01;46.98
21433;BME280;18592;49.708;10.900;2023-05-10T08:39:22;98121.97;;;21.04;46.86
21433;BME280;18592;49.708;10.900;2023-05-10T08:41:33;98124.13;;;21.07;46.85
21433;BME280;18592;49.708;10.900;2023-05-10T08:43:35;98130.13;;;21.09;47.23
21433;BME280;18592;49.708;10.900;2023-05-10T08:45:41;98124.25;;;21.10;47.13
21433;BME280;18592;49.708;10.900;2023-05-10T08:47:43;98124.75;;;21.12;46.87
21433;BME280;18592;49.708;10.900;2023-05-10T08:49:49;98126.06;;;21.15;46.84
21433;BME280;18592;49.708;10.900;2023-05-10T08:51:54;98139.56;;;21.16;46.81
21433;BME280;18592;49.708;10.900;2023-05-10T08:53:57;98127.34;;;21.17;46.81
21433;BME280;18592;49.708;10.900;2023-05-10T08:55:58;98139.25;;;21.18;46.66
21433;BME280;18592;49.708;10.900;2023-05-10T08:58:03;98142.00;;;21.18;46.55
21433;BME280;18592;49.708;10.900;2023-05-10T09:00:07;98138.28;;;21.22;46.74
21433;BME280;18592;49.708;10.900;2023-05-10T09:02:09;98139.88;;;21.23;46.75
21433;BME280;18592;49.708;10.900;2023-05-10T09:04:13;98143.63;;;21.27;46.74
21433;BME280;18592;49.708;10.900;2023-05-10T09:06:15;98147.38;;;21.31;47.08
21433;BME280;18592;49.708;10.900;2023-05-10T09:08:17;98143.94;;;21.34;46.97
21433;BME280;18592;49.708;10.900;2023-05-10T09:10:19;98142.13;;;21.38;46.75
21433;BME280;18592;49.708;10.900;2023-05-10T09:12:23;98146.66;;;21.43;46.89
21433;BME280;18592;49.708;10.900;2023-05-10T09:14:27;98138.50;;;21.46;46.64
21433;BME280;18592;49.708;10.900;2023-05-10T09:16:28;98137.03;;;21.49;46.99
21433;BME280;18592;49.708;10.900;2023-05-10T09:18:30;98149.41;;;21.51;46.53
21433;BME280;18592;49.708;10.900;2023-05-10T09:20:32;98137.31;;;21.56;46.85
21433;BME280;18592;49.708;10.900;2023-05-10T09:22:34;98139.09;;;21.61;46.58
21433;BME280;18592;49.708;10.900;2023-05-10T09:24:36;98143.31;;;21.67;46.57
21433;BME280;18592;49.708;10.900;2023-05-10T09:26:46;98148.69;;;21.72;46.96
21433;BME280;18592;49.708;10.900;2023-05-10T09:28:54;98148.97;;;21.79;46.70
21433;BME280;18592;49.708;10.900;2023-05-10T09:30:57;98141.28;;;21.84;46.77
21433;BME280;18592;49.708;10.900;2023-05-10T09:32:59;98142.75;;;21.90;46.60
21433;BME280;18592;49.708;10.900;2023-05-10T09:35:22;98149.72;;;21.96;46.77
21433;BME280;18592;49.708;10.900;2023-05-10T09:37:31;98142.38;;;22.00;46.63
21433;BME280;18592;49.708;10.900;2023-05-10T09:39:34;98142.16;;;22.05;46.66
21433;BME280;18592;49.708;10.900;2023-05-10T09:41:36;98140.69;;;22.08;46.72
21433;BME280;18592;49.708;10.900;2023-05-10T09:43:37;98153.09;;;22.10;46.16
21433;BME280;18592;49.708;10.900;2023-05-10T09:45:43;98150.78;;;22.12;46.11
21433;BME280;18592;49.708;10.900;2023-05-10T09:47:50;98144.88;;;22.14;45.92
21433;BME280;18592;49.708;10.900;2023-05-10T09:49:52;98150.09;;;22.16;45.87
21433;BME280;18592;49.708;10.900;2023-05-10T09:52:03;98153.19;;;22.14;45.70
21433;BME280;18592;49.708;10.900;2023-05-10T09:54:13;98140.97;;;22.15;45.60
21433;BME280;18592;49.708;10.900;2023-05-10T09:56:35;98139.81;;;22.16;45.92
21433;BME280;18592;49.708;10.900;2023-05-10T09:58:39;98147.97;;;22.21;45.95
21433;BME280;18592;49.708;10.900;2023-05-10T10:00:45;98147.41;;;22.28;46.16
21433;BME280;18592;49.708;10.900;2023-05-10T10:02:58;98146.84;;;22.34;46.13
21433;BME280;18592;49.708;10.900;2023-05-10T10:05:01;98143.56;;;22.41;45.98
21433;BME280;18592;49.708;10.900;2023-05-10T10:07:05;98142.53;;;22.45;46.15
21433;BME280;18592;49.708;10.900;2023-05-10T10:09:09;98139.72;;;22.54;46.16
21433;BME280;18592;49.708;10.900;2023-05-10T10:11:19;98136.53;;;22.64;46.51
21433;BME280;18592;49.708;10.900;2023-05-10T10:13:20;98136.59;;;22.76;46.48
21433;BME280;18592;49.708;10.900;2023-05-10T10:15:23;98131.91;;;22.89;46.62
21433;BME280;18592;49.708;10.900;2023-05-10T10:17:26;98138.78;;;23.03;46.66
21433;BME280;18592;49.708;10.900;2023-05-10T10:19:30;98136.84;;;23.16;46.63
21433;BME280;18592;49.708;10.900;2023-05-10T10:21:33;98135.28;;;23.27;46.42
21433;BME280;18592;49.708;10.900;2023-05-10T10:23:35;98137.94;;;23.35;46.18
21433;BME280;18592;49.708;10.900;2023-05-10T10:25:37;98129.53;;;23.44;46.03
21433;BME280;18592;49.708;10.900;2023-05-10T10:32:46;98126.91;;;23.60;45.48
21433;BME280;18592;49.708;10.900;2023-05-10T10:34:51;98127.47;;;23.65;45.23
21433;BME280;18592;49.708;10.900;2023-05-10T10:36:53;98128.41;;;23.69;44.88
21433;BME280;18592;49.708;10.900;2023-05-10T10:38:57;98122.59;;;23.74;45.22
21433;BME280;18592;49.708;10.900;2023-05-10T10:41:10;98127.13;;;23.79;45.16
21433;BME280;18592;49.708;10.900;2023-05-10T10:43:26;98124.09;;;23.84;44.86
21433;BME280;18592;49.708;10.900;2023-05-10T10:45:28;98121.91;;;23.89;45.18
21433;BME280;18592;49.708;10.900;2023-05-10T10:47:29;98122.81;;;23.93;44.90
21433;BME280;18592;49.708;10.900;2023-05-10T10:54:29;98123.31;;;23.95;44.10
21433;BME280;18592;49.708;10.900;2023-05-10T10:56:31;98122.50;;;23.95;43.51
21433;BME280;18592;49.708;10.900;2023-05-10T10:58:33;98130.38;;;23.93;43.30
21433;BME280;18592;49.708;10.900;2023-05-10T11:00:38;98138.25;;;23.91;43.40
21433;BME280;18592;49.708;10.900;2023-05-10T11:04:43;98133.28;;;23.84;43.05
21433;BME280;18592;49.708;10.900;2023-05-10T11:06:47;98134.44;;;23.83;42.98
21433;BME280;18592;49.708;10.900;2023-05-10T11:08:49;98129.56;;;23.80;42.89
21433;BME280;18592;49.708;10.900;2023-05-10T11:13:06;98137.34;;;23.75;42.77
21433;BME280;18592;49.708;10.900;2023-05-10T11:15:09;98142.44;;;23.73;43.04